sensor_id;sensor_type;location;lat;lon;timestamp;pressure;altitude;pressure_sealevel;temperature;humidity
21760;BME280;11041;50.854;20.580;2023-09-08T00:01:04;99673.69;;;12.63;100.00
21760;BME280;11041;50.854;20.580;2023-09-08T00:03:35;99678.34;;;12.63;100.00
21760;BME280;11041;50.854;20.580;2023-09-08T00:06:04;99670.72;;;12.60;100.00
21760;BME280;11041;50.854;20.580;2023-09-08T00:08:31;99670.41;;;12.61;100.00
21760;BME280;11041;50.854;20.580;2023-09-08T00:11:00;99671.22;;;12.62;100.00
21760;BME280;11041;50.854;20.580;2023-09-08T00:13:31;99668.47;;;12.62;100.00
21760;BME280;11041;50.854;20.580;2023-09-08T00:15:58;99666.84;;;12.61;100.00
21760;BME280;11041;50.854;20.580;2023-09-08T00:18:27;99674.28;;;12.60;100.00
21760;BME280;11041;50.854;20.580;2023-09-08T00:20:54;99672.66;;;12.59;100.00
21760;BME280;11041;50.854;20.580;2023-09-08T00:23:20;99677.34;;;12.58;100.00
21760;BME280;11041;50.854;20.580;2023-09-08T00:25:51;99682.88;;;12.58;100.00
21760;BME280;11041;50.854;20.580;2023-09-08T00:28:18;99676.84;;;12.56;100.00
21760;BME280;11041;50.854;20.580;2023-09-08T00:30:47;99685.41;;;12.55;100.00
21760;BME280;11041;50.854;20.580;2023-09-08T00:33:13;99673.56;;;12.54;100.00
21760;BME280;11041;50.854;20.580;2023-09-08T00:35:50;99677.13;;;12.55;100.00
21760;BME280;11041;50.854;20.580;2023-09-08T00:38:23;99676.03;;;12.56;100.00
21760;BME280;11041;50.854;20.580;2023-09-08T00:40:51;99677.13;;;12.55;100.00
21760;BME280;11041;50.854;20.580;2023-09-08T00:43:17;99673.56;;;12.54;100.00
21760;BME280;11041;50.854;20.580;2023-09-08T00:45:48;99663.47;;;12.50;100.00
21760;BME280;11041;50.854;20.580;2023-09-08T00:48:22;99664.06;;;12.47;100.00
21760;BME280;11041;50.854;20.580;2023-09-08T00:50:51;99656.91;;;12.46;100.00
21760;BME280;11041;50.854;20.580;2023-09-08T00:53:19;99660.00;;;12.44;100.00
21760;BME280;11041;50.854;20.580;2023-09-08T00:55:48;99652.34;;;12.41;100.00
21760;BME280;11041;50.854;20.580;2023-09-08T00:58:18;99657.84;;;12.41;100.00
21760;BME280;11041;50.854;20.580;2023-09-08T01:00:47;99652.41;;;12.36;100.00
21760;BME280;11041;50.854;20.580;2023-09-08T01:03:18;99654.47;;;12.30;100.00
21760;BME280;11041;50.854;20.580;2023-09-08T01:05:45;99655.69;;;12.24;100.00
21760;BME280;11041;50.854;20.580;2023-09-08T01:08:13;99652.19;;;12.19;100.00
21760;BME280;11041;50.854;20.580;2023-09-08T01:10:46;99652.81;;;12.15;100.00
21760;BME280;11041;50.854;20.580;2023-09-08T01:13:14;99648.91;;;12.17;100.00
21760;BME280;11041;50.854;20.580;2023-09-08T01:15:45;99646.69;;;12.19;100.00
21760;BME280;11041;50.854;20.580;2023-09-08T01:18:11;99653.53;;;12.21;100.00
21760;BME280;11041;50.854;20.580;2023-09-08T01:21:12;99655.69;;;12.24;100.00
21760;BME280;11041;50.854;20.580;2023-09-08T01:26:48;99646.09;;;12.35;100.00
21760;BME280;11041;50.854;20.580;2023-09-08T01:29:16;99650.66;;;12.26;100.00
21760;BME280;11041;50.854;20.580;2023-09-08T01:31:47;99652.00;;;12.15;100.00
21760;BME280;11041;50.854;20.580;2023-09-08T01:34:14;99656.66;;;12.14;100.00
21760;BME280;11041;50.854;20.580;2023-09-08T01:36:48;99651.69;;;12.17;100.00
21760;BME280;11041;50.854;20.580;2023-09-08T01:39:14;99649.97;;;12.21;100.00
21760;BME280;11041;50.854;20.580;2023-09-08T01:41:43;99649.34;;;12.24;100.00
21760;BME280;11041;50.854;20.580;2023-09-08T01:44:12;99648.75;;;12.27;100.00
21760;BME280;11041;50.854;20.580;2023-09-08T01:46:43;99639.06;;;12.29;100.00
21760;BME280;11041;50.854;20.580;2023-09-08T01:49:11;99642.63;;;12.30;100.00
21760;BME280;11041;50.854;20.580;2023-09-08T01:51:49;99640.69;;;12.30;100.00
21760;BME280;11041;50.854;20.580;2023-09-08T01:54:16;99635.41;;;12.34;100.00
21760;BME280;11041;50.854;20.580;2023-09-08T01:56:49;99639.78;;;12.35;100.00
21760;BME280;11041;50.854;20.580;2023-09-08T01:59:17;99642.00;;;12.33;100.00
21760;BME280;11041;50.854;20.580;2023-09-08T02:01:48;99645.69;;;12.28;100.00
21760;BME280;11041;50.854;20.580;2023-09-08T02:04:16;99643.84;;;12.24;100.00
21760;BME280;11041;50.854;20.580;2023-09-08T02:06:51;99636.19;;;12.21;100.00
21760;BME280;11041;50.854;20.580;2023-09-08T02:09:20;99644.44;;;12.21;100.00
21760;BME280;11041;50.854;20.580;2023-09-08T02:11:49;99637.81;;;12.22;100.00
21760;BME280;11041;50.854;20.580;2023-09-08T02:14:18;99633.13;;;12.22;100.00
21760;BME280;11041;50.854;20.580;2023-09-08T02:16:49;99637.50;;;12.23;100.00
21760;BME280;11041;50.854;20.580;2023-09-08T02:19:16;99640.78;;;12.25;100.00
21760;BME280;11041;50.854;20.580;2023-09-08T02:21:46;99640.25;;;12.23;100.00
21760;BME280;11041;50.854;20.580;2023-09-08T02:24:13;99640.66;;;12.17;100.00
21760;BME280;11041;50.854;20.580;2023-09-08T02:26:41;99634.63;;;12.14;100.00
21760;BME280;11041;50.854;20.580;2023-09-08T02:29:15;99634.94;;;12.13;100.00
21760;BME280;11041;50.854;20.580;2023-09-08T02:31:42;99638.53;;;12.13;100.00
21760;BME280;11041;50.854;20.580;2023-09-08T02:34:17;99633.00;;;12.13;100.00
21760;BME280;11041;50.854;20.580;2023-09-08T02:36:44;99628.63;;;12.12;100.00
21760;BME280;11041;50.854;20.580;2023-09-08T02:39:14;99631.88;;;12.14;100.00
21760;BME280;11041;50.854;20.580;2023-09-08T02:41:41;99629.63;;;12.17;100.00
21760;BME280;11041;50.854;20.580;2023-09-08T02:44:11;99623.59;;;12.14;100.00
21760;BME280;11041;50.854;20.580;2023-09-08T02:46:38;99620.66;;;12.11;100.00
21760;BME280;11041;50.854;20.580;2023-09-08T02:49:09;99620.84;;;12.01;100.00
21760;BME280;11041;50.854;20.580;2023-09-08T02:51:35;99621.75;;;11.96;100.00
21760;BME280;11041;50.854;20.580;2023-09-08T02:54:03;99621.75;;;11.96;100.00
21760;BME280;11041;50.854;20.580;2023-09-08T02:56:31;99619.81;;;11.97;100.00
21760;BME280;11041;50.854;20.580;2023-09-08T02:58:59;99620.63;;;11.97;100.00
21760;BME280;11041;50.854;20.580;2023-09-08T03:01:25;99619.81;;;11.97;100.00
21760;BME280;11041;50.854;20.580;2023-09-08T03:03:52;99613.50;;;11.96;100.00
21760;BME280;11041;50.854;20.580;2023-09-08T03:06:20;99618.41;;;11.99;100.00
21760;BME280;11041;50.854;20.580;2023-09-08T03:08:48;99620.06;;;12.00;100.00
21760;BME280;11041;50.854;20.580;2023-09-08T03:11:14;99615.34;;;12.01;100.00
21760;BME280;11041;50.854;20.580;2023-09-08T03:13:41;99619.53;;;11.98;100.00
21760;BME280;11041;50.854;20.580;2023-09-08T03:16:09;99620.34;;;11.99;100.00
21760;BME280;11041;50.854;20.580;2023-09-08T03:18:37;99618.69;;;11.98;100.00
21760;BME280;11041;50.854;20.580;2023-09-08T03:21:07;99617.88;;;11.97;100.00
21760;BME280;11041;50.854;20.580;2023-09-08T03:23:42;99612.06;;;11.99;100.00
21760;BME280;11041;50.854;20.580;2023-09-08T03:26:10;99608.00;;;11.96;100.00
21760;BME280;11041;50.854;20.580;2023-09-08T03:28:42;99601.97;;;11.94;100.00
21760;BME280;11041;50.854;20.580;2023-09-08T03:31:10;99604.50;;;11.90;100.00
21760;BME280;11041;50.854;20.580;2023-09-08T03:33:38;99611.19;;;11.84;100.00
21760;BME280;11041;50.854;20.580;2023-09-08T03:36:05;99600.78;;;11.81;100.00
21760;BME280;11041;50.854;20.580;2023-09-08T03:38:32;99598.03;;;11.81;100.00
21760;BME280;11041;50.854;20.580;2023-09-08T03:40:58;99606.78;;;11.83;100.00
21760;BME280;11041;50.854;20.580;2023-09-08T03:43:26;99601.59;;;11.82;100.00
21760;BME280;11041;50.854;20.580;2023-09-08T03:45:56;99601.09;;;11.80;100.00
21760;BME280;11041;50.854;20.580;2023-09-08T03:48:26;99595.06;;;11.78;100.00
21760;BME280;11041;50.854;20.580;2023-09-08T03:50:53;99597.63;;;11.74;100.00
21760;BME280;11041;50.854;20.580;2023-09-08T03:53:19;99601.47;;;11.73;100.00
21760;BME280;11041;50.854;20.580;2023-09-08T03:55:46;99602.28;;;11.73;100.00
21760;BME280;11041;50.854;20.580;2023-09-08T03:58:13;99607.78;;;11.73;100.00
21760;BME280;11041;50.854;20.580;2023-09-08T04:00:43;99595.69;;;11.75;100.00
21760;BME280;11041;50.854;20.580;2023-09-08T04:03:16;99600.06;;;11.76;100.00
21760;BME280;11041;50.854;20.580;2023-09-08T04:05:42;99592.63;;;11.76;100.00
21760;BME280;11041;50.854;20.580;2023-09-08T04:08:14;99597.53;;;11.79;100.00
21760;BME280;11041;50.854;20.580;2023-09-08T04:10:43;99593.97;;;11.79;100.00
21760;BME280;11041;50.854;20.580;2023-09-08T04:13:11;99595.06;;;11.78;100.00
21760;BME280;11041;50.854;20.580;2023-09-08T04:15:38;99603.31;;;11.78;100.00
21760;BME280;11041;50.854;20.580;2023-09-08T04:18:07;99605.78;;;11.79;100.00
21760;BME280;11041;50.854;20.580;2023-09-08T04:20:37;99606.88;;;11.78;100.00
21760;BME280;11041;50.854;20.580;2023-09-08T04:23:11;99608.22;;;11.81;100.00
21760;BME280;11041;50.854;20.580;2023-09-08T04:25:40;99604.88;;;11.84;100.00
21760;BME280;11041;50.854;20.580;2023-09-08T04:28:10;99607.06;;;11.87;100.00
21760;BME280;11041;50.854;20.580;2023-09-08T04:30:39;99611.44;;;11.88;100.00
21760;BME280;11041;50.854;20.580;2023-09-08T04:33:10;99607.88;;;11.87;100.00
21760;BME280;11041;50.854;20.580;2023-09-08T04:35:44;99616.66;;;11.89;100.00
21760;BME280;11041;50.854;20.580;2023-09-08T04:38:22;99605.09;;;11.87;100.00
21760;BME280;11041;50.854;20.580;2023-09-08T04:40:51;99616.66;;;11.89;100.00
21760;BME280;11041;50.854;20.580;2023-09-08T04:43:30;99606.75;;;11.88;100.00
21760;BME280;11041;50.854;20.580;2023-09-08T04:45:57;99609.41;;;11.93;100.00
21760;BME280;11041;50.854;20.580;2023-09-08T04:48:26;99615.13;;;11.97;100.00
21760;BME280;11041;50.854;20.580;2023-09-08T04:50:53;99612.28;;;12.02;100.00
21760;BME280;11041;50.854;20.580;2023-09-08T04:53:21;99613.31;;;12.06;100.00
21760;BME280;11041;50.854;20.580;2023-09-08T04:55:47;99610.84;;;12.05;100.00
21760;BME280;11041;50.854;20.580;2023-09-08T04:58:16;99603.09;;;12.07;100.00
21760;BME280;11041;50.854;20.580;2023-09-08T05:00:42;99605.84;;;12.07;100.00
21760;BME280;11041;50.854;20.580;2023-09-08T05:03:09;99600.25;;;12.12;100.00
21760;BME280;11041;50.854;20.580;2023-09-08T05:05:40;99602.94;;;12.17;100.00
21760;BME280;11041;50.854;20.580;2023-09-08T05:08:07;99590.97;;;12.22;100.00
21760;BME280;11041;50.854;20.580;2023-09-08T05:10:33;99603.25;;;12.29;100.00
21760;BME280;11041;50.854;20.580;2023-09-08T05:13:00;99600.06;;;12.36;100.00
21760;BME280;11041;50.854;20.580;2023-09-08T05:15:26;99598.53;;;12.44;100.00
21760;BME280;11041;50.854;20.580;2023-09-08T05:17:55;99595.06;;;12.52;100.00
21760;BME280;11041;50.854;20.580;2023-09-08T05:20:21;99596.25;;;12.60;100.00
21760;BME280;11041;50.854;20.580;2023-09-08T05:22:52;99607.06;;;12.70;100.00
21760;BME280;11041;50.854;20.580;2023-09-08T05:25:18;99600.03;;;12.77;100.00
21760;BME280;11041;50.854;20.580;2023-09-08T05:27:48;99593.78;;;12.86;100.00
21760;BME280;11041;50.854;20.580;2023-09-08T05:30:19;99593.88;;;12.94;100.00
21760;BME280;11041;50.854;20.580;2023-09-08T05:32:47;99594.78;;;13.04;100.00
21760;BME280;11041;50.854;20.580;2023-09-08T05:35:16;99596.78;;;13.12;100.00
21760;BME280;11041;50.854;20.580;2023-09-08T05:37:45;99602.88;;;13.22;100.00
21760;BME280;11041;50.854;20.580;2023-09-08T05:40:12;99600.22;;;13.31;100.00
21760;BME280;11041;50.854;20.580;2023-09-08T05:42:38;99597.22;;;13.41;100.00
21760;BME280;11041;50.854;20.580;2023-09-08T05:45:06;99597.91;;;13.47;100.00
21760;BME280;11041;50.854;20.580;2023-09-08T05:47:33;99603.34;;;13.61;100.00
21760;BME280;11041;50.854;20.580;2023-09-08T05:50:02;99598.69;;;13.70;100.00
21760;BME280;11041;50.854;20.580;2023-09-08T05:52:29;99598.13;;;13.82;100.00
21760;BME280;11041;50.854;20.580;2023-09-08T05:54:57;99597.03;;;13.92;100.00
21760;BME280;11041;50.854;20.580;2023-09-08T05:57:24;99600.38;;;14.02;100.00
21760;BME280;11041;50.854;20.580;2023-09-08T05:59:50;99595.38;;;14.13;100.00
21760;BME280;11041;50.854;20.580;2023-09-08T06:02:22;99596.72;;;14.24;100.00
21760;BME280;11041;50.854;20.580;2023-09-08T06:04:53;99600.00;;;14.35;100.00
21760;BME280;11041;50.854;20.580;2023-09-08T06:07:22;99600.53;;;14.46;100.00
21760;BME280;11041;50.854;20.580;2023-09-08T06:09:53;99600.28;;;14.56;100.00
21760;BME280;11041;50.854;20.580;2023-09-08T06:12:20;99602.44;;;14.68;100.00
21760;BME280;11041;50.854;20.580;2023-09-08T06:14:49;99597.38;;;14.79;100.00
21760;BME280;11041;50.854;20.580;2023-09-08T06:17:15;99595.16;;;14.89;100.00
21760;BME280;11041;50.854;20.580;2023-09-08T06:19:44;99592.56;;;15.02;100.00
21760;BME280;11041;50.854;20.580;2023-09-08T06:22:11;99589.94;;;15.14;100.00
21760;BME280;11041;50.854;20.580;2023-09-08T06:24:38;99592.06;;;15.26;100.00
21760;BME280;11041;50.854;20.580;2023-09-08T06:27:09;99592.41;;;15.42;100.00
21760;BME280;11041;50.854;20.580;2023-09-08T06:29:40;99590.25;;;15.65;100.00
21760;BME280;11041;50.854;20.580;2023-09-08T06:32:10;99586.66;;;15.82;100.00
21760;BME280;11041;50.854;20.580;2023-09-08T06:34:40;99583.69;;;15.95;100.00
21760;BME280;11041;50.854;20.580;2023-09-08T06:37:10;99589.03;;;16.09;100.00
21760;BME280;11041;50.854;20.580;2023-09-08T06:39:42;99593.88;;;16.21;100.00
21760;BME280;11041;50.854;20.580;2023-09-08T06:42:08;99589.25;;;16.34;100.00
21760;BME280;11041;50.854;20.580;2023-09-08T06:44:36;99585.78;;;16.46;100.00
21760;BME280;11041;50.854;20.580;2023-09-08T06:47:04;99589.78;;;16.57;100.00
21760;BME280;11041;50.854;20.580;2023-09-08T06:49:35;99586.44;;;16.72;100.00
21760;BME280;11041;50.854;20.580;2023-09-08T06:52:06;99584.25;;;16.87;100.00
21760;BME280;11041;50.854;20.580;2023-09-08T06:54:35;99591.66;;;17.03;100.00
21760;BME280;11041;50.854;20.580;2023-09-08T06:57:04;99583.06;;;17.17;100.00
21760;BME280;11041;50.854;20.580;2023-09-08T06:59:34;99582.75;;;17.31;100.00
21760;BME280;11041;50.854;20.580;2023-09-08T07:02:00;99585.59;;;17.43;100.00
21760;BME280;11041;50.854;20.580;2023-09-08T07:04:33;99586.47;;;17.56;100.00
21760;BME280;11041;50.854;20.580;2023-09-08T07:07:03;99584.53;;;17.69;100.00
21760;BME280;11041;50.854;20.580;2023-09-08T07:09:37;99589.84;;;17.83;100.00
21760;BME280;11041;50.854;20.580;2023-09-08T07:12:05;99590.81;;;17.99;99.32
21760;BME280;11041;50.854;20.580;2023-09-08T07:14:32;99591.63;;;18.12;98.56
21760;BME280;11041;50.854;20.580;2023-09-08T07:16:59;99595.59;;;18.23;97.21
21760;BME280;11041;50.854;20.580;2023-09-08T07:19:26;99595.13;;;18.34;95.98
21760;BME280;11041;50.854;20.580;2023-09-08T07:21:54;99598.72;;;18.46;95.04
21760;BME280;11041;50.854;20.580;2023-09-08T07:24:22;99599.09;;;18.57;94.09
21760;BME280;11041;50.854;20.580;2023-09-08T07:26:50;99595.50;;;18.69;93.30
21760;BME280;11041;50.854;20.580;2023-09-08T07:29:17;99597.66;;;18.76;90.50
21760;BME280;11041;50.854;20.580;2023-09-08T07:31:44;99593.75;;;18.89;89.93
21760;BME280;11041;50.854;20.580;2023-09-08T07:34:11;99598.25;;;19.06;88.96
21760;BME280;11041;50.854;20.580;2023-09-08T07:36:38;99599.41;;;19.17;88.16
21760;BME280;11041;50.854;20.580;2023-09-08T07:39:05;99602.16;;;19.29;87.95
21760;BME280;11041;50.854;20.580;2023-09-08T07:41:33;99603.97;;;19.37;87.09
21760;BME280;11041;50.854;20.580;2023-09-08T07:44:00;99592.69;;;19.46;86.76
21760;BME280;11041;50.854;20.580;2023-09-08T07:46:27;99598.47;;;19.53;85.57
21760;BME280;11041;50.854;20.580;2023-09-08T07:48:58;99590.28;;;19.61;85.18
21760;BME280;11041;50.854;20.580;2023-09-08T07:51:26;99594.59;;;19.70;80.92
21760;BME280;11041;50.854;20.580;2023-09-08T07:53:55;99593.00;;;19.85;81.47
21760;BME280;11041;50.854;20.580;2023-09-08T07:56:24;99583.63;;;19.93;81.38
21760;BME280;11041;50.854;20.580;2023-09-08T07:58:51;99587.88;;;20.03;78.98
21760;BME280;11041;50.854;20.580;2023-09-08T08:01:18;99590.50;;;20.12;78.03
21760;BME280;11041;50.854;20.580;2023-09-08T08:03:45;99587.63;;;20.24;78.16
21760;BME280;11041;50.854;20.580;2023-09-08T08:06:12;99587.06;;;20.34;78.46
21760;BME280;11041;50.854;20.580;2023-09-08T08:08:39;99590.50;;;20.43;78.42
21760;BME280;11041;50.854;20.580;2023-09-08T08:11:15;99590.69;;;20.51;75.84
21760;BME280;11041;50.854;20.580;2023-09-08T08:13:45;99586.56;;;20.60;77.13
21760;BME280;11041;50.854;20.580;2023-09-08T08:16:12;99586.72;;;20.68;76.33
21760;BME280;11041;50.854;20.580;2023-09-08T08:18:39;99588.88;;;20.74;75.33
21760;BME280;11041;50.854;20.580;2023-09-08T08:21:05;99583.00;;;20.79;74.93
21760;BME280;11041;50.854;20.580;2023-09-08T08:23:34;99595.53;;;20.85;75.01
21760;BME280;11041;50.854;20.580;2023-09-08T08:26:05;99590.13;;;20.93;73.03
21760;BME280;11041;50.854;20.580;2023-09-08T08:28:34;99590.63;;;20.98;73.40
21760;BME280;11041;50.854;20.580;2023-09-08T08:31:01;99584.75;;;21.03;73.74
21760;BME280;11041;50.854;20.580;2023-09-08T08:33:30;99586.81;;;21.06;72.84
21760;BME280;11041;50.854;20.580;2023-09-08T08:35:59;99574.97;;;21.13;71.77
21760;BME280;11041;50.854;20.580;2023-09-08T08:38:26;99582.28;;;21.18;72.09
21760;BME280;11041;50.854;20.580;2023-09-08T08:40:53;99571.53;;;21.20;71.31
21760;BME280;11041;50.854;20.580;2023-09-08T08:43:21;99572.84;;;21.26;71.66
21760;BME280;11041;50.854;20.580;2023-09-08T08:45:51;99580.13;;;21.31;71.24
21760;BME280;11041;50.854;20.580;2023-09-08T08:48:22;99573.53;;;21.39;71.68
21760;BME280;11041;50.854;20.580;2023-09-08T08:50:53;99580.03;;;21.43;70.98
21760;BME280;11041;50.854;20.580;2023-09-08T08:53:22;99581.00;;;21.51;69.55
21760;BME280;11041;50.854;20.580;2023-09-08T08:55:52;99573.47;;;21.55;69.87
21760;BME280;11041;50.854;20.580;2023-09-08T08:58:23;99577.59;;;21.61;69.87
21760;BME280;11041;50.854;20.580;2023-09-08T09:00:54;99568.53;;;21.67;69.75
21760;BME280;11041;50.854;20.580;2023-09-08T09:03:26;99567.00;;;21.70;67.92
21760;BME280;11041;50.854;20.580;2023-09-08T09:05:54;99573.44;;;21.74;68.04
21760;BME280;11041;50.854;20.580;2023-09-08T09:08:24;99566.75;;;21.79;66.78
21760;BME280;11041;50.854;20.580;2023-09-08T09:10:52;99571.63;;;21.82;68.51
21760;BME280;11041;50.854;20.580;2023-09-08T09:13:18;99575.03;;;21.95;69.17
21760;BME280;11041;50.854;20.580;2023-09-08T09:15:46;99569.94;;;22.00;68.31
21760;BME280;11041;50.854;20.580;2023-09-08T09:18:15;99573.25;;;22.06;67.62
21760;BME280;11041;50.854;20.580;2023-09-08T09:20:54;99572.06;;;22.07;67.23
21760;BME280;11041;50.854;20.580;2023-09-08T09:23:35;99566.53;;;22.10;65.34
21760;BME280;11041;50.854;20.580;2023-09-08T09:26:03;99564.22;;;22.16;65.41
21760;BME280;11041;50.854;20.580;2023-09-08T09:28:47;99570.34;;;22.22;64.32
21760;BME280;11041;50.854;20.580;2023-09-08T09:31:14;99567.22;;;22.27;63.41
21760;BME280;11041;50.854;20.580;2023-09-08T09:33:43;99570.91;;;22.31;62.25
21760;BME280;11041;50.854;20.580;2023-09-08T09:36:10;99566.19;;;22.35;63.09
21760;BME280;11041;50.854;20.580;2023-09-08T09:38:47;99560.94;;;22.57;60.46
21760;BME280;11041;50.854;20.580;2023-09-08T09:41:15;99563.41;;;22.62;61.25
21760;BME280;11041;50.854;20.580;2023-09-08T09:43:42;99555.81;;;22.62;60.39
21760;BME280;11041;50.854;20.580;2023-09-08T09:46:10;99556.66;;;22.66;62.08
21760;BME280;11041;50.854;20.580;2023-09-08T09:48:38;99558.72;;;22.69;61.67
21760;BME280;11041;50.854;20.580;2023-09-08T09:51:17;99563.56;;;22.72;64.06
21760;BME280;11041;50.854;20.580;2023-09-08T09:53:46;99560.38;;;22.74;62.86
21760;BME280;11041;50.854;20.580;2023-09-08T09:56:17;99560.38;;;22.74;62.25
21760;BME280;11041;50.854;20.580;2023-09-08T09:58:46;99553.97;;;22.73;61.57
21760;BME280;11041;50.854;20.580;2023-09-08T10:01:16;99547.56;;;22.73;60.46
21760;BME280;11041;50.854;20.580;2023-09-08T10:03:47;99550.88;;;22.82;61.60
21760;BME280;11041;50.854;20.580;2023-09-08T10:06:15;99551.81;;;22.90;60.62
21760;BME280;11041;50.854;20.580;2023-09-08T10:08:43;99548.28;;;22.96;60.52
21760;BME280;11041;50.854;20.580;2023-09-08T10:11:16;99545.59;;;23.04;60.04
21760;BME280;11041;50.854;20.580;2023-09-08T10:13:50;99540.09;;;23.11;60.57
21760;BME280;11041;50.854;20.580;2023-09-08T10:16:21;99545.84;;;23.22;60.98
21760;BME280;11041;50.854;20.580;2023-09-08T10:18:51;99543.09;;;23.25;58.10
21760;BME280;11041;50.854;20.580;2023-09-08T10:21:23;99541.09;;;23.26;58.18
21760;BME280;11041;50.854;20.580;2023-09-08T10:24:30;99531.84;;;23.22;54.65
21760;BME280;11041;50.854;20.580;2023-09-08T10:27:11;99537.09;;;23.27;56.67
21760;BME280;11041;50.854;20.580;2023-09-08T10:29:39;99531.59;;;23.34;57.74
21760;BME280;11041;50.854;20.580;2023-09-08T10:32:08;99537.28;;;23.41;57.60
21760;BME280;11041;50.854;20.580;2023-09-08T10:34:39;99532.94;;;23.47;56.89
21760;BME280;11041;50.854;20.580;2023-09-08T10:37:26;99534.63;;;23.55;57.96
21760;BME280;11041;50.854;20.580;2023-09-08T10:40:22;99535.06;;;23.57;55.09
21760;BME280;11041;50.854;20.580;2023-09-08T10:43:12;99527.75;;;23.49;53.73
21760;BME280;11041;50.854;20.580;2023-09-08T10:45:40;99524.94;;;23.49;56.30
21760;BME280;11041;50.854;20.580;2023-09-08T10:48:10;99527.44;;;23.58;57.37
21760;BME280;11041;50.854;20.580;2023-09-08T10:50:42;99521.50;;;23.67;56.05
21760;BME280;11041;50.854;20.580;2023-09-08T10:53:16;99515.25;;;23.77;56.33
21760;BME280;11041;50.854;20.580;2023-09-08T10:55:50;99515.41;;;23.91;56.01
21760;BME280;11041;50.854;20.580;2023-09-08T10:58:38;99517.47;;;24.01;55.99
21760;BME280;11041;50.854;20.580;2023-09-08T11:01:07;99512.31;;;24.07;53.91
21760;BME280;11041;50.854;20.580;2023-09-08T11:06:10;99508.88;;;24.28;52.80
21760;BME280;11041;50.854;20.580;2023-09-08T11:08:47;99502.94;;;24.40;52.56
21760;BME280;11041;50.854;20.580;2023-09-08T11:11:16;99497.88;;;24.57;48.30
21760;BME280;11041;50.854;20.580;2023-09-08T11:13:44;99495.13;;;24.64;50.82
21760;BME280;11041;50.854;20.580;2023-09-08T11:16:16;99495.19;;;24.82;49.87
21760;BME280;11041;50.854;20.580;2023-09-08T11:18:51;99493.63;;;24.88;48.30
21760;BME280;11041;50.854;20.580;2023-09-08T11:21:21;99490.09;;;25.02;46.80
21760;BME280;11041;50.854;20.580;2023-09-08T11:23:51;99484.91;;;25.11;46.90
21760;BME280;11041;50.854;20.580;2023-09-08T11:26:17;99480.88;;;25.08;47.78
21760;BME280;11041;50.854;20.580;2023-09-08T11:28:48;99480.88;;;25.05;49.74
21760;BME280;11041;50.854;20.580;2023-09-08T11:31:18;99480.09;;;25.15;48.23
21760;BME280;11041;50.854;20.580;2023-09-08T11:33:49;99479.72;;;25.17;48.80
21760;BME280;11041;50.854;20.580;2023-09-08T11:36:18;99474.09;;;25.20;48.68
21760;BME280;11041;50.854;20.580;2023-09-08T11:38:46;99478.13;;;25.23;47.15
21760;BME280;11041;50.854;20.580;2023-09-08T11:41:13;99468.53;;;25.31;48.45
21760;BME280;11041;50.854;20.580;2023-09-08T11:43:43;99473.78;;;25.47;45.18
21760;BME280;11041;50.854;20.580;2023-09-08T11:46:14;99476.22;;;25.56;47.01
21760;BME280;11041;50.854;20.580;2023-09-08T11:48:42;99465.78;;;25.53;45.23
21760;BME280;11041;50.854;20.580;2023-09-08T11:51:10;99462.97;;;25.60;44.89
21760;BME280;11041;50.854;20.580;2023-09-08T11:53:41;99468.56;;;25.56;47.57
21760;BME280;11041;50.854;20.580;2023-09-08T11:56:11;99457.72;;;25.58;48.04
21760;BME280;11041;50.854;20.580;2023-09-08T11:58:41;99451.69;;;25.56;48.65
21760;BME280;11041;50.854;20.580;2023-09-08T12:01:11;99459.75;;;25.65;47.91
21760;BME280;11041;50.854;20.580;2023-09-08T12:03:59;99453.31;;;25.75;48.00
21760;BME280;11041;50.854;20.580;2023-09-08T12:06:29;99445.69;;;25.83;47.81
21760;BME280;11041;50.854;20.580;2023-09-08T12:09:01;99450.16;;;25.98;47.56
21760;BME280;11041;50.854;20.580;2023-09-08T12:11:35;99452.94;;;26.23;44.17
21760;BME280;11041;50.854;20.580;2023-09-08T12:14:11;99449.31;;;26.30;44.30
21760;BME280;11041;50.854;20.580;2023-09-08T12:16:39;99449.34;;;26.16;45.99
21760;BME280;11041;50.854;20.580;2023-09-08T12:19:07;99444.13;;;26.10;43.80
21760;BME280;11041;50.854;20.580;2023-09-08T12:21:56;99442.50;;;25.99;44.11
21760;BME280;11041;50.854;20.580;2023-09-08T12:24:57;99433.66;;;26.07;45.61
21760;BME280;11041;50.854;20.580;2023-09-08T12:32:35;99436.00;;;26.48;45.29
21760;BME280;11041;50.854;20.580;2023-09-08T12:35:07;99438.84;;;26.55;45.08
21760;BME280;11041;50.854;20.580;2023-09-08T12:37:41;99434.38;;;26.72;41.43
21760;BME280;11041;50.854;20.580;2023-09-08T12:40:10;99428.31;;;26.77;42.19
21760;BME280;11041;50.854;20.580;2023-09-08T12:42:37;99424.34;;;26.53;41.74
21760;BME280;11041;50.854;20.580;2023-09-08T12:45:07;99428.34;;;26.49;44.29
21760;BME280;11041;50.854;20.580;2023-09-08T12:47:34;99423.50;;;26.60;44.23
21760;BME280;11041;50.854;20.580;2023-09-08T12:50:07;99419.84;;;26.74;44.23
21760;BME280;11041;50.854;20.580;2023-09-08T12:52:37;99419.78;;;26.88;44.19
21760;BME280;11041;50.854;20.580;2023-09-08T12:55:07;99415.69;;;27.00;41.88
21760;BME280;11041;50.854;20.580;2023-09-08T12:57:35;99410.81;;;27.11;41.69
21760;BME280;11041;50.854;20.580;2023-09-08T13:00:07;99409.94;;;27.29;42.06
21760;BME280;11041;50.854;20.580;2023-09-08T13:02:34;99406.66;;;27.37;41.42
21760;BME280;11041;50.854;20.580;2023-09-08T13:05:07;99403.75;;;27.52;41.03
21760;BME280;11041;50.854;20.580;2023-09-08T13:07:38;99406.13;;;27.57;40.17
21760;BME280;11041;50.854;20.580;2023-09-08T13:10:07;99412.06;;;27.70;41.99